Time;durP1;ratioP1;P1;durP2;ratioP2;P2;SDS_P1;SDS_P2;PMS_P1;PMS_P2;Temp;Humidity;BMP_temperature;BMP_pressure;BME280_temperature;BME280_humidity;BME280_pressure;Samples;Min_cycle;Max_cycle;Signal;HPM_P1;HPM_P2
2022/03/14 00:00:27;;;;;;;32.38;8.32;;;;;;;;;;6067922;23;20447;-79
2022/03/14 00:02:54;;;;;;;38.30;13.95;;;;;;;;;;6066747;23;20479;-79
2022/03/14 00:05:31;;;;;;;40.13;12.98;;;;;;;;;;6068278;23;20059;-80
2022/03/14 00:07:59;;;;;;;52.22;14.20;;;;;;;;;;6068164;23;20498;-79
2022/03/14 00:10:25;;;;;;;46.78;15.25;;;;;;;;;;6066407;23;20035;-80
2022/03/14 00:12:56;;;;;;;53.35;16.25;;;;;;;;;;6066158;23;20010;-79
2022/03/14 00:15:23;;;;;;;50.90;14.43;;;;;;;;;;6065922;23;20002;-81
2022/03/14 00:17:52;;;;;;;51.00;14.05;;;;;;;;;;6066645;23;20443;-80
2022/03/14 00:20:19;;;;;;;49.20;12.60;;;;;;;;;;6067550;23;20037;-79
2022/03/14 00:22:46;;;;;;;47.70;11.25;;;;;;;;;;6065857;23;20011;-80
2022/03/14 00:25:12;;;;;;;42.90;8.63;;;;;;;;;;6066550;23;20010;-80
2022/03/14 00:27:38;;;;;;;41.25;9.70;;;;;;;;;;6065760;23;20017;-80
2022/03/14 00:30:10;;;;;;;33.50;7.05;;;;;;;;;;6067893;23;20003;-82
2022/03/14 00:32:39;;;;;;;45.45;7.70;;;;;;;;;;6066107;23;20455;-82
2022/03/14 00:35:09;;;;;;;35.13;7.88;;;;;;;;;;6065972;23;20013;-82
2022/03/14 00:37:38;;;;;;;36.08;7.88;;;;;;;;;;6066118;23;20446;-82
2022/03/14 00:40:07;;;;;;;39.40;8.80;;;;;;;;;;6065853;23;20498;-81
2022/03/14 00:42:35;;;;;;;52.20;9.48;;;;;;;;;;6066233;23;20015;-82
2022/03/14 00:45:02;;;;;;;36.35;7.72;;;;;;;;;;6066238;23;20034;-83
2022/03/14 00:47:28;;;;;;;32.05;7.53;;;;;;;;;;6066356;23;20016;-82
2022/03/14 00:49:55;;;;;;;33.90;8.43;;;;;;;;;;6065798;23;20172;-82
2022/03/14 00:52:23;;;;;;;34.60;9.25;;;;;;;;;;6067568;23;20010;-82
2022/03/14 00:54:50;;;;;;;44.25;9.52;;;;;;;;;;6065788;23;20347;-81
2022/03/14 00:57:17;;;;;;;43.10;8.35;;;;;;;;;;6065765;23;20011;-81
2022/03/14 00:59:43;;;;;;;33.90;8.57;;;;;;;;;;6065827;23;20053;-81
2022/03/14 01:02:10;;;;;;;38.75;8.13;;;;;;;;;;6064293;23;20494;-81
2022/03/14 01:04:36;;;;;;;30.60;8.65;;;;;;;;;;6065080;23;20015;-81
2022/03/14 01:07:05;;;;;;;33.47;8.13;;;;;;;;;;6064996;23;20006;-80
2022/03/14 01:09:31;;;;;;;39.90;9.10;;;;;;;;;;6065175;23;20083;-80
2022/03/14 01:11:59;;;;;;;24.73;9.00;;;;;;;;;;6064467;23;20003;-80
2022/03/14 01:14:25;;;;;;;31.83;7.97;;;;;;;;;;6065858;23;20007;-80
2022/03/14 01:16:54;;;;;;;34.58;7.75;;;;;;;;;;6067325;23;20335;-80
2022/03/14 01:19:21;;;;;;;33.97;7.65;;;;;;;;;;6069008;23;20082;-80
2022/03/14 01:21:49;;;;;;;41.22;10.07;;;;;;;;;;6066669;23;20015;-81
2022/03/14 01:24:15;;;;;;;39.50;11.10;;;;;;;;;;6068502;23;20007;-81
2022/03/14 01:26:44;;;;;;;40.97;12.02;;;;;;;;;;6066488;23;20030;-81
2022/03/14 01:29:10;;;;;;;40.85;12.05;;;;;;;;;;6067014;23;20380;-81
2022/03/14 01:31:38;;;;;;;42.97;12.32;;;;;;;;;;6066483;23;20062;-81
2022/03/14 01:34:04;;;;;;;57.58;14.65;;;;;;;;;;6066134;23;20041;-81
2022/03/14 01:36:31;;;;;;;43.17;13.25;;;;;;;;;;6066668;23;20070;-80
2022/03/14 01:38:58;;;;;;;39.58;13.98;;;;;;;;;;6065787;23;20018;-81
2022/03/14 01:41:26;;;;;;;47.20;14.65;;;;;;;;;;6065642;23;20019;-81
2022/03/14 01:43:53;;;;;;;40.40;14.15;;;;;;;;;;6067760;23;20038;-80
2022/03/14 01:46:19;;;;;;;43.55;15.32;;;;;;;;;;6066505;23;20018;-81
2022/03/14 01:48:46;;;;;;;51.50;17.58;;;;;;;;;;6066763;23;20010;-80
2022/03/14 01:51:14;;;;;;;45.13;16.30;;;;;;;;;;6067752;23;20014;-81
2022/03/14 01:53:47;;;;;;;42.47;16.63;;;;;;;;;;6064765;23;20034;-81
2022/03/14 01:56:17;;;;;;;46.97;15.35;;;;;;;;;;6067239;23;20089;-81
2022/03/14 01:58:46;;;;;;;41.15;13.73;;;;;;;;;;6067472;23;20011;-82
2022/03/14 02:01:13;;;;;;;47.17;14.30;;;;;;;;;;6067488;23;20034;-82
2022/03/14 02:03:47;;;;;;;49.35;15.38;;;;;;;;;;6067640;23;20089;-81
2022/03/14 02:06:14;;;;;;;56.10;14.57;;;;;;;;;;6067424;23;20002;-81
2022/03/14 02:08:40;;;;;;;49.53;13.57;;;;;;;;;;6067190;23;20017;-81
2022/03/14 02:11:06;;;;;;;47.22;12.70;;;;;;;;;;6068949;23;20013;-82
2022/03/14 02:13:34;;;;;;;46.38;13.18;;;;;;;;;;6067124;23;20006;-82
2022/03/14 02:16:00;;;;;;;44.42;11.95;;;;;;;;;;6067719;23;20355;-82
2022/03/14 02:18:26;;;;;;;41.60;12.05;;;;;;;;;;6066951;23;20045;-81
2022/03/14 02:20:53;;;;;;;40.83;12.60;;;;;;;;;;6066608;23;20003;-81
2022/03/14 02:23:19;;;;;;;41.40;11.30;;;;;;;;;;6066428;23;20071;-81
2022/03/14 02:25:49;;;;;;;45.22;12.30;;;;;;;;;;6066610;23;20011;-81
2022/03/14 02:28:18;;;;;;;42.95;14.35;;;;;;;;;;6066590;23;20006;-82
2022/03/14 02:30:44;;;;;;;45.65;15.02;;;;;;;;;;6065831;23;20037;-81
2022/03/14 02:33:11;;;;;;;44.08;14.20;;;;;;;;;;6065306;23;20015;-82
2022/03/14 02:35:39;;;;;;;64.32;16.83;;;;;;;;;;6065485;23;20007;-81
2022/03/14 02:38:09;;;;;;;45.92;15.88;;;;;;;;;;6066204;23;20011;-81
2022/03/14 02:40:39;;;;;;;63.92;17.98;;;;;;;;;;6065010;23;20003;-82
2022/03/14 02:43:06;;;;;;;44.75;16.13;;;;;;;;;;6065952;23;20002;-82
2022/03/14 02:45:33;;;;;;;42.55;17.13;;;;;;;;;;6065078;23;20017;-81
2022/03/14 02:48:00;;;;;;;52.00;16.27;;;;;;;;;;6065937;23;20380;-81
2022/03/14 02:50:27;;;;;;;44.28;14.73;;;;;;;;;;6066025;23;20013;-81
2022/03/14 02:52:54;;;;;;;44.35;15.68;;;;;;;;;;6065021;23;20086;-82
2022/03/14 02:55:23;;;;;;;50.35;16.40;;;;;;;;;;6064062;23;20007;-82
2022/03/14 02:57:49;;;;;;;45.92;14.27;;;;;;;;;;6065472;23;20525;-82
2022/03/14 03:00:15;;;;;;;37.28;14.38;;;;;;;;;;6065426;23;20019;-81
2022/03/14 03:02:43;;;;;;;41.05;13.32;;;;;;;;;;6065818;23;20074;-81
2022/03/14 03:05:09;;;;;;;42.75;12.57;;;;;;;;;;6065218;23;20324;-81
2022/03/14 03:07:36;;;;;;;34.15;12.75;;;;;;;;;;6066171;23;20007;-81
2022/03/14 03:10:04;;;;;;;34.42;11.45;;;;;;;;;;6065478;23;20014;-81
2022/03/14 03:12:31;;;;;;;41.38;12.32;;;;;;;;;;6065794;23;20007;-82
2022/03/14 03:14:58;;;;;;;39.55;12.52;;;;;;;;;;6065301;23;20007;-82
2022/03/14 03:17:24;;;;;;;35.70;10.95;;;;;;;;;;6066337;23;20457;-83
2022/03/14 03:19:51;;;;;;;26.00;9.68;;;;;;;;;;6064892;23;20384;-83
2022/03/14 03:22:18;;;;;;;23.25;8.70;;;;;;;;;;6065753;23;20086;-82
2022/03/14 03:24:44;;;;;;;34.63;9.15;;;;;;;;;;6066331;23;20007;-84
2022/03/14 03:27:10;;;;;;;26.17;7.38;;;;;;;;;;6065479;23;20058;-83
2022/03/14 03:29:37;;;;;;;24.35;8.02;;;;;;;;;;6067490;23;20015;-86
2022/03/14 03:32:03;;;;;;;23.48;6.80;;;;;;;;;;6064944;23;20010;-85
2022/03/14 03:34:29;;;;;;;17.20;6.60;;;;;;;;;;6063995;23;20087;-83
2022/03/14 03:36:56;;;;;;;21.13;6.88;;;;;;;;;;6061988;23;20340;-81
2022/03/14 03:39:22;;;;;;;21.38;6.10;;;;;;;;;;6065261;23;20344;-82
2022/03/14 03:41:48;;;;;;;19.65;6.80;;;;;;;;;;6065485;23;20436;-83
2022/03/14 03:44:14;;;;;;;25.10;7.10;;;;;;;;;;6065272;23;20007;-82
2022/03/14 03:46:41;;;;;;;18.65;6.72;;;;;;;;;;6064881;23;20031;-82
2022/03/14 03:49:07;;;;;;;24.15;6.82;;;;;;;;;;6066648;23;20007;-83
2022/03/14 03:51:33;;;;;;;17.10;5.97;;;;;;;;;;6064869;23;20082;-83
2022/03/14 03:54:00;;;;;;;24.98;6.03;;;;;;;;;;6064867;23;20320;-83
2022/03/14 03:56:26;;;;;;;21.77;6.80;;;;;;;;;;6065557;23;20011;-83
2022/03/14 03:58:52;;;;;;;22.08;5.57;;;;;;;;;;6041635;23;20147;-83
2022/03/14 04:01:21;;;;;;;19.42;6.70;;;;;;;;;;6065284;23;20025;-81
2022/03/14 04:03:54;;;;;;;15.63;4.95;;;;;;;;;;6066969;23;19999;-82
2022/03/14 04:06:22;;;;;;;15.15;5.25;;;;;;;;;;6065085;23;20017;-82
2022/03/14 04:08:49;;;;;;;14.05;3.22;;;;;;;;;;6065585;23;20007;-82
2022/03/14 04:11:15;;;;;;;18.35;3.50;;;;;;;;;;6064876;23;20463;-81
2022/03/14 04:13:44;;;;;;;19.98;4.13;;;;;;;;;;6065509;23;20411;-82
2022/03/14 04:16:10;;;;;;;17.58;3.92;;;;;;;;;;6067314;23;20373;-81
2022/03/14 04:18:39;;;;;;;15.45;3.95;;;;;;;;;;6065640;23;20029;-81
2022/03/14 04:21:05;;;;;;;18.30;4.10;;;;;;;;;;6065885;23;20344;-81
2022/03/14 04:23:34;;;;;;;20.45;4.78;;;;;;;;;;6066398;23;20006;-84
2022/03/14 04:26:00;;;;;;;23.05;4.95;;;;;;;;;;6066024;23;20435;-84
2022/03/14 04:28:28;;;;;;;21.52;5.07;;;;;;;;;;6066097;23;20462;-81
2022/03/14 04:30:55;;;;;;;22.38;3.38;;;;;;;;;;6066037;23;20011;-83
2022/03/14 04:33:22;;;;;;;26.30;5.85;;;;;;;;;;6066249;23;20427;-81
2022/03/14 04:35:48;;;;;;;20.13;4.15;;;;;;;;;;6068015;23;20006;-82
2022/03/14 04:38:16;;;;;;;28.35;6.43;;;;;;;;;;6066546;23;20015;-81
2022/03/14 04:40:42;;;;;;;28.90;6.35;;;;;;;;;;6065728;23;20007;-81
2022/03/14 04:43:10;;;;;;;29.60;6.30;;;;;;;;;;6066286;23;20011;-81
2022/03/14 04:45:38;;;;;;;38.53;8.50;;;;;;;;;;6065706;23;20024;-82
2022/03/14 04:48:07;;;;;;;25.70;6.93;;;;;;;;;;6066359;23;20465;-81
2022/03/14 04:50:37;;;;;;;27.25;7.20;;;;;;;;;;6067497;23;20007;-80
2022/03/14 04:53:04;;;;;;;41.40;9.23;;;;;;;;;;6067343;23;20011;-82
2022/03/14 04:55:30;;;;;;;43.78;10.93;;;;;;;;;;6065216;23;20017;-81
2022/03/14 04:57:57;;;;;;;35.75;8.55;;;;;;;;;;6067398;23;20010;-81
2022/03/14 05:00:23;;;;;;;36.15;11.35;;;;;;;;;;6064762;23;20041;-82
2022/03/14 05:02:50;;;;;;;35.20;12.23;;;;;;;;;;6065276;23;20038;-82
2022/03/14 05:05:16;;;;;;;39.58;12.82;;;;;;;;;;6064813;23;20007;-82
2022/03/14 05:07:42;;;;;;;41.83;12.63;;;;;;;;;;6065212;23;20007;-81
2022/03/14 05:10:10;;;;;;;38.13;13.45;;;;;;;;;;6064888;23;20007;-82
2022/03/14 05:12:37;;;;;;;39.70;13.48;;;;;;;;;;6066395;23;20062;-82
2022/03/14 05:15:04;;;;;;;39.38;13.40;;;;;;;;;;6064309;23;20018;-81
2022/03/14 05:17:30;;;;;;;37.17;14.43;;;;;;;;;;6064970;23;20109;-81
2022/03/14 05:19:57;;;;;;;34.90;14.07;;;;;;;;;;6065142;23;20009;-81
2022/03/14 05:22:24;;;;;;;29.90;13.15;;;;;;;;;;6065085;23;20357;-81
2022/03/14 05:24:51;;;;;;;40.95;11.90;;;;;;;;;;6064100;23;20007;-81
2022/03/14 05:27:18;;;;;;;40.45;11.90;;;;;;;;;;6065740;23;20059;-81
2022/03/14 05:29:44;;;;;;;37.05;11.98;;;;;;;;;;6065734;23;20078;-81
2022/03/14 05:32:12;;;;;;;42.80;12.50;;;;;;;;;;6063157;23;20499;-81
2022/03/14 05:34:38;;;;;;;38.58;14.07;;;;;;;;;;6064225;23;20034;-81
2022/03/14 05:37:07;;;;;;;37.40;14.93;;;;;;;;;;6065973;23;20018;-81
2022/03/14 05:39:33;;;;;;;43.92;14.57;;;;;;;;;;6066047;23;20388;-81
2022/03/14 05:42:04;;;;;;;38.80;14.65;;;;;;;;;;6065638;23;20010;-81
2022/03/14 05:44:30;;;;;;;45.17;14.82;;;;;;;;;;6065683;23;20007;-81
2022/03/14 05:46:57;;;;;;;37.03;14.73;;;;;;;;;;6064463;23;20015;-80
2022/03/14 05:49:24;;;;;;;43.35;14.50;;;;;;;;;;6065481;23;20010;-81
2022/03/14 05:51:50;;;;;;;43.22;13.55;;;;;;;;;;6065822;23;20007;-81
2022/03/14 05:54:17;;;;;;;35.97;12.23;;;;;;;;;;6065083;23;20014;-81
2022/03/14 05:56:46;;;;;;;36.83;12.77;;;;;;;;;;6064317;23;20011;-80
2022/03/14 05:59:15;;;;;;;38.90;12.98;;;;;;;;;;6064943;23;20007;-81
2022/03/14 06:01:42;;;;;;;44.63;12.30;;;;;;;;;;6068547;23;20011;-81
2022/03/14 06:04:10;;;;;;;39.83;11.23;;;;;;;;;;6065212;23;20030;-80
2022/03/14 06:06:37;;;;;;;47.47;11.13;;;;;;;;;;6066012;23;20006;-80
2022/03/14 06:09:03;;;;;;;37.83;12.98;;;;;;;;;;6066130;23;20435;-80
2022/03/14 06:11:30;;;;;;;41.80;12.52;;;;;;;;;;6066032;23;20086;-81
2022/03/14 06:13:58;;;;;;;37.70;11.63;;;;;;;;;;6066307;23;20399;-80
2022/03/14 06:16:25;;;;;;;45.00;13.25;;;;;;;;;;6066566;23;20014;-80
2022/03/14 06:18:53;;;;;;;43.75;12.70;;;;;;;;;;6065958;23;20013;-79
2022/03/14 06:21:20;;;;;;;34.67;12.63;;;;;;;;;;6067987;23;20007;-77
2022/03/14 06:23:47;;;;;;;33.95;12.13;;;;;;;;;;6067396;23;20347;-77
2022/03/14 06:26:14;;;;;;;45.53;11.55;;;;;;;;;;6065938;23;20419;-77
2022/03/14 06:28:41;;;;;;;33.70;11.10;;;;;;;;;;6065848;23;20026;-77
2022/03/14 06:31:09;;;;;;;38.15;11.10;;;;;;;;;;6066465;23;20030;-78
2022/03/14 06:33:37;;;;;;;41.38;13.35;;;;;;;;;;6065345;23;20324;-78
2022/03/14 06:36:03;;;;;;;39.10;12.70;;;;;;;;;;6066678;23;20011;-79
2022/03/14 06:38:31;;;;;;;44.00;12.63;;;;;;;;;;6067212;23;20111;-78
2022/03/14 06:40:57;;;;;;;31.30;12.30;;;;;;;;;;6065827;23;20086;-78
2022/03/14 06:43:24;;;;;;;30.23;11.73;;;;;;;;;;6065746;23;20449;-78
2022/03/14 06:45:51;;;;;;;36.22;10.90;;;;;;;;;;6065065;23;20010;-78
2022/03/14 06:48:18;;;;;;;32.22;10.73;;;;;;;;;;6065784;23;20015;-78
2022/03/14 06:50:44;;;;;;;29.90;10.80;;;;;;;;;;6065240;23;20007;-79
2022/03/14 06:53:11;;;;;;;39.92;10.98;;;;;;;;;;6067296;23;20011;-78
2022/03/14 06:55:38;;;;;;;36.75;11.65;;;;;;;;;;6065390;23;20449;-78
2022/03/14 06:58:05;;;;;;;31.05;10.57;;;;;;;;;;6065854;23;20031;-79
2022/03/14 07:00:31;;;;;;;39.88;11.27;;;;;;;;;;6065530;23;20015;-79
2022/03/14 07:02:57;;;;;;;34.72;12.30;;;;;;;;;;6066203;23;20379;-78
2022/03/14 07:05:26;;;;;;;38.90;12.57;;;;;;;;;;6066586;23;20003;-78
2022/03/14 07:07:53;;;;;;;43.75;13.32;;;;;;;;;;6066706;23;20066;-78
2022/03/14 07:10:19;;;;;;;40.00;13.50;;;;;;;;;;6065620;23;20011;-78
2022/03/14 07:12:49;;;;;;;38.75;13.13;;;;;;;;;;6066391;23;20321;-78
2022/03/14 07:15:16;;;;;;;33.17;14.32;;;;;;;;;;6067167;23;20011;-78
2022/03/14 07:17:43;;;;;;;39.80;14.70;;;;;;;;;;6065385;23;20017;-78
2022/03/14 07:20:13;;;;;;;31.63;13.73;;;;;;;;;;6065846;23;20398;-78
2022/03/14 07:22:55;;;;;;;38.08;15.13;;;;;;;;;;6064474;23;20006;-78
2022/03/14 07:25:28;;;;;;;40.65;14.38;;;;;;;;;;6065447;23;20006;-78
2022/03/14 07:27:55;;;;;;;45.50;15.77;;;;;;;;;;6042306;23;20102;-78
2022/03/14 07:30:33;;;;;;;32.08;15.00;;;;;;;;;;6067488;23;20010;-78
2022/03/14 07:32:59;;;;;;;40.35;14.63;;;;;;;;;;6065633;23;20090;-81
2022/03/14 07:35:27;;;;;;;39.60;16.17;;;;;;;;;;6065948;23;20010;-78
2022/03/14 07:37:54;;;;;;;37.28;16.60;;;;;;;;;;6065835;23;20094;-78
2022/03/14 07:40:23;;;;;;;45.55;16.52;;;;;;;;;;6066179;23;20010;-77
2022/03/14 07:42:50;;;;;;;38.78;17.45;;;;;;;;;;6064999;23;20010;-77
2022/03/14 07:45:20;;;;;;;44.20;16.83;;;;;;;;;;6064722;23;20030;-77
2022/03/14 07:47:46;;;;;;;41.47;16.25;;;;;;;;;;6066580;23;20010;-77
2022/03/14 07:50:15;;;;;;;38.95;19.00;;;;;;;;;;6064130;23;20125;-77
2022/03/14 07:52:42;;;;;;;35.67;14.98;;;;;;;;;;6066015;23;20014;-77
2022/03/14 07:55:09;;;;;;;43.38;16.58;;;;;;;;;;6066715;23;20011;-77
2022/03/14 07:57:35;;;;;;;44.67;17.85;;;;;;;;;;6066241;23;20458;-77
2022/03/14 08:00:02;;;;;;;38.38;15.65;;;;;;;;;;6061478;23;20031;-77
2022/03/14 08:02:28;;;;;;;49.33;17.25;;;;;;;;;;6061707;23;20014;-77
2022/03/14 08:04:55;;;;;;;45.63;16.83;;;;;;;;;;6061757;23;20011;-77
2022/03/14 08:07:23;;;;;;;41.88;15.18;;;;;;;;;;6061894;23;20094;-77
2022/03/14 08:09:50;;;;;;;44.08;15.30;;;;;;;;;;6061371;23;20007;-77
2022/03/14 08:12:17;;;;;;;40.70;15.30;;;;;;;;;;6062030;23;20038;-77
2022/03/14 08:14:43;;;;;;;39.30;15.57;;;;;;;;;;6061432;23;20007;-77
2022/03/14 08:17:10;;;;;;;42.05;16.25;;;;;;;;;;6060715;23;20102;-77
2022/03/14 08:19:37;;;;;;;44.88;16.35;;;;;;;;;;6062091;23;20004;-77
2022/03/14 08:22:03;;;;;;;49.03;17.05;;;;;;;;;;6039315;23;20003;-77
2022/03/14 08:24:30;;;;;;;45.13;16.13;;;;;;;;;;6061676;23;20003;-77
2022/03/14 08:26:57;;;;;;;43.58;14.10;;;;;;;;;;6039626;23;20003;-77
2022/03/14 08:29:24;;;;;;;41.30;13.82;;;;;;;;;;6039031;23;20007;-77
2022/03/14 08:31:51;;;;;;;39.58;12.98;;;;;;;;;;6060819;23;20170;-77
2022/03/14 08:34:17;;;;;;;37.30;13.27;;;;;;;;;;6061498;23;20012;-77
2022/03/14 08:36:44;;;;;;;45.92;15.18;;;;;;;;;;6061304;23;20015;-77
2022/03/14 08:39:11;;;;;;;50.05;17.52;;;;;;;;;;6061946;23;20340;-77
2022/03/14 08:41:37;;;;;;;56.85;17.77;;;;;;;;;;6061389;23;20492;-77
2022/03/14 08:44:04;;;;;;;61.67;18.90;;;;;;;;;;6061144;23;20007;-77
2022/03/14 08:46:31;;;;;;;44.15;18.75;;;;;;;;;;6060925;23;20011;-77
2022/03/14 08:48:57;;;;;;;48.97;20.13;;;;;;;;;;6061313;23;20500;-77
2022/03/14 08:51:24;;;;;;;48.08;21.02;;;;;;;;;;6061545;23;20087;-77
2022/03/14 08:53:50;;;;;;;50.42;22.17;;;;;;;;;;6060966;23;20008;-78
2022/03/14 08:56:19;;;;;;;61.15;22.75;;;;;;;;;;6061502;23;20087;-77
2022/03/14 08:58:45;;;;;;;46.58;20.70;;;;;;;;;;6061152;23;20019;-79
2022/03/14 09:01:12;;;;;;;53.00;22.38;;;;;;;;;;6061187;23;20015;-77
2022/03/14 09:03:38;;;;;;;42.90;21.40;;;;;;;;;;6061482;23;20011;-77
2022/03/14 09:06:05;;;;;;;59.47;22.75;;;;;;;;;;6061303;23;20007;-77
2022/03/14 09:08:34;;;;;;;53.10;23.45;;;;;;;;;;6039295;23;20297;-77
2022/03/14 09:11:01;;;;;;;52.30;23.23;;;;;;;;;;6061204;23;20066;-77
2022/03/14 09:13:28;;;;;;;61.67;24.63;;;;;;;;;;6061213;23;20008;-77
2022/03/14 09:15:54;;;;;;;57.55;25.65;;;;;;;;;;6061536;23;20099;-77
2022/03/14 09:18:21;;;;;;;60.30;25.27;;;;;;;;;;6060878;23;20015;-77
2022/03/14 09:20:48;;;;;;;50.20;23.48;;;;;;;;;;6061383;23;20458;-77
2022/03/14 09:23:20;;;;;;;58.30;24.05;;;;;;;;;;6060777;23;20086;-78
2022/03/14 09:25:47;;;;;;;56.38;22.30;;;;;;;;;;6061149;23;20098;-78
2022/03/14 09:28:16;;;;;;;70.03;19.90;;;;;;;;;;6039044;23;20074;-77
2022/03/14 09:30:43;;;;;;;52.65;20.25;;;;;;;;;;6060598;23;20432;-78
2022/03/14 09:33:09;;;;;;;56.60;19.02;;;;;;;;;;6061209;23;20071;-78
2022/03/14 09:35:36;;;;;;;46.88;18.55;;;;;;;;;;6062248;23;20027;-77
2022/03/14 09:38:02;;;;;;;47.25;19.77;;;;;;;;;;6063315;23;20087;-78
2022/03/14 09:40:30;;;;;;;43.58;19.75;;;;;;;;;;6062471;23;20007;-78
2022/03/14 09:43:01;;;;;;;49.65;19.63;;;;;;;;;;6063046;23;20007;-77
2022/03/14 09:45:27;;;;;;;55.35;19.02;;;;;;;;;;6040310;23;20083;-78
2022/03/14 09:47:58;;;;;;;52.88;18.50;;;;;;;;;;6062956;23;20035;-77
2022/03/14 09:50:27;;;;;;;53.03;17.90;;;;;;;;;;6062794;23;20004;-79
2022/03/14 09:52:55;;;;;;;43.08;15.18;;;;;;;;;;6039210;23;20095;-77
2022/03/14 09:55:21;;;;;;;48.58;17.67;;;;;;;;;;6058309;23;20455;-77
2022/03/14 09:57:48;;;;;;;61.00;20.15;;;;;;;;;;6090123;23;20007;-77
2022/03/14 10:00:16;;;;;;;50.65;18.77;;;;;;;;;;6090453;23;20090;-76
2022/03/14 10:02:43;;;;;;;64.43;19.58;;;;;;;;;;6090544;23;20058;-78
2022/03/14 10:05:12;;;;;;;49.78;17.33;;;;;;;;;;6091245;23;20408;-76
2022/03/14 10:07:40;;;;;;;51.17;18.95;;;;;;;;;;6068991;23;20007;-76
2022/03/14 10:10:08;;;;;;;43.70;17.33;;;;;;;;;;6090834;23;20011;-77
2022/03/14 10:12:34;;;;;;;52.28;15.85;;;;;;;;;;6068950;23;20010;-76
2022/03/14 10:15:04;;;;;;;44.35;15.10;;;;;;;;;;6090957;23;20034;-77
2022/03/14 10:17:31;;;;;;;45.80;16.05;;;;;;;;;;6090930;23;20007;-77
2022/03/14 10:19:59;;;;;;;39.10;15.25;;;;;;;;;;6091307;23;20038;-77
2022/03/14 10:22:26;;;;;;;49.10;14.40;;;;;;;;;;6068737;23;20007;-77
2022/03/14 10:25:03;;;;;;;57.85;16.58;;;;;;;;;;6091289;23;20002;-78
2022/03/14 10:27:29;;;;;;;39.67;14.65;;;;;;;;;;6069426;23;20007;-78
2022/03/14 10:29:56;;;;;;;50.03;15.05;;;;;;;;;;6069058;23;20011;-78
2022/03/14 10:35:01;;;;;;;39.75;14.93;;;;;;;;;;6076373;23;20021;-76
2022/03/14 10:37:29;;;;;;;45.65;16.60;;;;;;;;;;6066765;23;20022;-75
2022/03/14 10:40:00;;;;;;;45.80;15.32;;;;;;;;;;6090828;23;20011;-76
2022/03/14 10:42:27;;;;;;;43.15;15.13;;;;;;;;;;6090601;23;20002;-76
2022/03/14 10:44:54;;;;;;;49.95;16.63;;;;;;;;;;6090805;23;20313;-76
2022/03/14 10:47:21;;;;;;;52.13;17.25;;;;;;;;;;6090327;23;20014;-76
2022/03/14 10:49:47;;;;;;;46.20;15.68;;;;;;;;;;6090647;23;20014;-76
2022/03/14 10:52:15;;;;;;;55.08;15.38;;;;;;;;;;6089302;23;20030;-76
2022/03/14 10:54:42;;;;;;;40.63;14.05;;;;;;;;;;6090648;23;20055;-76
2022/03/14 10:57:14;;;;;;;51.35;15.50;;;;;;;;;;6090542;23;20036;-76
2022/03/14 10:59:51;;;;;;;53.58;15.07;;;;;;;;;;6094646;23;20014;-76
2022/03/14 11:02:22;;;;;;;52.22;13.23;;;;;;;;;;6097024;23;20355;-76
2022/03/14 11:04:56;;;;;;;44.17;14.45;;;;;;;;;;6094847;23;20002;-76
2022/03/14 11:07:33;;;;;;;42.95;13.23;;;;;;;;;;6094405;23;20034;-76
2022/03/14 11:10:00;;;;;;;38.50;13.48;;;;;;;;;;6096695;23;20026;-77
2022/03/14 11:12:28;;;;;;;40.97;14.35;;;;;;;;;;6095540;23;20013;-77
2022/03/14 11:14:57;;;;;;;46.90;14.35;;;;;;;;;;6095499;23;20105;-77
2022/03/14 11:17:25;;;;;;;41.20;15.23;;;;;;;;;;6094757;23;20077;-77
2022/03/14 11:19:51;;;;;;;49.03;15.70;;;;;;;;;;6095285;23;20083;-78
2022/03/14 11:22:18;;;;;;;46.35;15.90;;;;;;;;;;6095518;23;20010;-77
2022/03/14 11:24:46;;;;;;;45.97;15.05;;;;;;;;;;6093102;23;20009;-77
2022/03/14 11:27:21;;;;;;;43.90;16.02;;;;;;;;;;6070908;23;20017;-77
2022/03/14 11:29:48;;;;;;;65.22;19.55;;;;;;;;;;6094803;23;20006;-77
2022/03/14 11:32:15;;;;;;;52.53;23.65;;;;;;;;;;6093577;23;20371;-77
2022/03/14 11:34:43;;;;;;;65.72;24.00;;;;;;;;;;6094024;23;20016;-77
2022/03/14 11:37:10;;;;;;;63.60;27.00;;;;;;;;;;6093759;23;20018;-77
2022/03/14 11:39:37;;;;;;;78.65;30.38;;;;;;;;;;6093233;23;20017;-76
2022/03/14 11:42:03;;;;;;;54.85;20.23;;;;;;;;;;6088572;23;20014;-77
2022/03/14 11:44:30;;;;;;;53.05;20.42;;;;;;;;;;6092834;23;20010;-77
2022/03/14 11:46:58;;;;;;;57.85;22.08;;;;;;;;;;6093346;23;20133;-76
2022/03/14 11:49:27;;;;;;;56.22;21.15;;;;;;;;;;6093126;23;20251;-76
2022/03/14 11:52:08;;;;;;;50.22;19.23;;;;;;;;;;6093245;23;20013;-77
2022/03/14 11:54:38;;;;;;;67.10;18.95;;;;;;;;;;6092898;23;20306;-77
2022/03/14 11:57:05;;;;;;;53.50;19.90;;;;;;;;;;6093344;23;20419;-77
2022/03/14 11:59:34;;;;;;;54.13;18.95;;;;;;;;;;6093924;23;20062;-78
2022/03/14 12:02:01;;;;;;;52.28;19.00;;;;;;;;;;6093297;23;20006;-79
2022/03/14 12:04:31;;;;;;;44.47;19.35;;;;;;;;;;6091603;23;20041;-76
2022/03/14 12:06:58;;;;;;;58.58;16.38;;;;;;;;;;6092013;23;20098;-77
2022/03/14 12:09:27;;;;;;;43.63;18.77;;;;;;;;;;6092224;23;20017;-77
2022/03/14 12:11:58;;;;;;;43.50;18.60;;;;;;;;;;6094009;23;20101;-77
2022/03/14 12:14:43;;;;;;;67.13;20.83;;;;;;;;;;6091029;23;20098;-77
2022/03/14 12:17:15;;;;;;;55.13;20.52;;;;;;;;;;6087604;23;20089;-77
2022/03/14 12:19:49;;;;;;;59.28;21.88;;;;;;;;;;6090333;23;20039;-77
2022/03/14 12:22:25;;;;;;;67.50;28.65;;;;;;;;;;6093572;23;20018;-77
2022/03/14 12:24:51;;;;;;;57.90;24.45;;;;;;;;;;6091782;23;20017;-77
2022/03/14 12:27:20;;;;;;;56.35;22.63;;;;;;;;;;6090833;23;20006;-78
2022/03/14 12:29:48;;;;;;;58.78;22.83;;;;;;;;;;6087948;23;20407;-78
2022/03/14 12:32:26;;;;;;;62.92;21.98;;;;;;;;;;6091380;23;20018;-79
2022/03/14 12:35:00;;;;;;;51.25;21.80;;;;;;;;;;6090554;23;20481;-78
2022/03/14 12:37:35;;;;;;;46.80;24.98;;;;;;;;;;6087042;23;20021;-78
2022/03/14 12:40:02;;;;;;;52.78;24.10;;;;;;;;;;6090890;23;20093;-77
2022/03/14 12:42:28;;;;;;;55.33;24.77;;;;;;;;;;6093896;23;20006;-78
2022/03/14 12:45:34;;;;;;;66.13;26.95;;;;;;;;;;6092984;23;20011;-78
2022/03/14 12:48:10;;;;;;;69.97;27.27;;;;;;;;;;5981627;23;20020;-78
2022/03/14 12:50:51;;;;;;;64.95;27.50;;;;;;;;;;5981443;23;20026;-78
2022/03/14 12:53:20;;;;;;;66.40;26.98;;;;;;;;;;5981812;23;20503;-78
2022/03/14 12:55:53;;;;;;;72.10;25.95;;;;;;;;;;5981711;23;20503;-78
2022/03/14 12:58:20;;;;;;;63.72;23.80;;;;;;;;;;5986563;23;20018;-78
2022/03/14 13:00:47;;;;;;;59.63;24.92;;;;;;;;;;6091586;23;20896;-79
2022/03/14 13:03:19;;;;;;;55.13;25.88;;;;;;;;;;6091339;23;20097;-78
2022/03/14 13:05:46;;;;;;;58.67;24.20;;;;;;;;;;6090278;23;20010;-78
2022/03/14 13:08:13;;;;;;;52.30;22.77;;;;;;;;;;6090542;23;20439;-79
2022/03/14 13:10:39;;;;;;;60.00;24.02;;;;;;;;;;6091411;23;20010;-79
2022/03/14 13:13:08;;;;;;;60.08;25.08;;;;;;;;;;6093868;23;20010;-79
2022/03/14 13:15:36;;;;;;;54.92;22.30;;;;;;;;;;6092205;23;20046;-79
2022/03/14 13:18:03;;;;;;;55.25;23.90;;;;;;;;;;6093961;23;20443;-80
2022/03/14 13:20:30;;;;;;;56.53;22.30;;;;;;;;;;6092405;23;20034;-79
2022/03/14 13:22:57;;;;;;;48.70;19.60;;;;;;;;;;6094987;23;20354;-80
2022/03/14 13:25:33;;;;;;;55.17;21.30;;;;;;;;;;6094115;23;20007;-80
2022/03/14 13:28:00;;;;;;;56.70;21.45;;;;;;;;;;6094748;23;20431;-80
2022/03/14 13:30:40;;;;;;;47.15;22.42;;;;;;;;;;6094864;23;20482;-80
2022/03/14 13:33:16;;;;;;;60.00;23.42;;;;;;;;;;6095595;23;20316;-80
2022/03/14 13:35:45;;;;;;;54.63;23.75;;;;;;;;;;6093856;23;20014;-79
2022/03/14 13:38:11;;;;;;;62.90;23.98;;;;;;;;;;6094947;23;20021;-80
2022/03/14 13:40:44;;;;;;;54.42;22.50;;;;;;;;;;6092399;23;20496;-79
2022/03/14 13:43:10;;;;;;;62.00;25.42;;;;;;;;;;6091896;23;20014;-79
2022/03/14 13:45:37;;;;;;;56.80;24.17;;;;;;;;;;6091413;23;20018;-79
2022/03/14 13:48:03;;;;;;;56.65;21.90;;;;;;;;;;6091766;23;20011;-79
2022/03/14 13:50:30;;;;;;;59.05;21.20;;;;;;;;;;6092885;23;20021;-80
2022/03/14 13:52:59;;;;;;;58.97;20.15;;;;;;;;;;6092259;23;20018;-80
2022/03/14 13:55:25;;;;;;;49.88;17.27;;;;;;;;;;6091604;23;20283;-80
2022/03/14 13:58:00;;;;;;;64.43;18.63;;;;;;;;;;6093449;23;20013;-79
2022/03/14 14:00:28;;;;;;;59.72;20.73;;;;;;;;;;6091364;23;20026;-79
2022/03/14 14:03:00;;;;;;;58.60;16.58;;;;;;;;;;6092011;23;20010;-79
2022/03/14 14:05:36;;;;;;;47.13;15.43;;;;;;;;;;6092350;23;20464;-79
2022/03/14 14:08:04;;;;;;;48.35;18.52;;;;;;;;;;6092018;23;20382;-79
2022/03/14 14:10:35;;;;;;;55.50;17.67;;;;;;;;;;6089008;23;20014;-79
2022/03/14 14:13:02;;;;;;;61.33;19.20;;;;;;;;;;6091501;23;20435;-79
2022/03/14 14:15:41;;;;;;;59.30;19.88;;;;;;;;;;6091991;23;20078;-80
2022/03/14 14:18:29;;;;;;;53.60;19.83;;;;;;;;;;6091229;23;20014;-80
2022/03/14 14:20:55;;;;;;;67.75;21.00;;;;;;;;;;6093943;23;20093;-81
2022/03/14 14:23:22;;;;;;;63.10;21.70;;;;;;;;;;6093689;23;20015;-81
2022/03/14 14:25:52;;;;;;;76.72;25.02;;;;;;;;;;6091369;23;20342;-80